createdAt,value
2022-12-18T00:01:29.285Z,13.43
2022-12-18T00:03:57.343Z,10.05
2022-12-18T00:06:27.126Z,11.18
2022-12-18T00:08:55.460Z,16.27
2022-12-18T00:11:25.535Z,13.68
2022-12-18T00:13:55.104Z,13.75
2022-12-18T00:16:24.960Z,13.43
2022-12-18T00:18:55.416Z,13.52
2022-12-18T00:21:23.252Z,13.60
2022-12-18T00:23:51.444Z,14.95
2022-12-18T00:26:23.496Z,16.50
2022-12-18T00:28:51.064Z,15.38
2022-12-18T00:31:24.140Z,15.02
2022-12-18T00:33:54.612Z,16.92
2022-12-18T00:36:27.051Z,15.18
2022-12-18T00:38:56.339Z,13.65
2022-12-18T00:41:42.673Z,14.15
2022-12-18T00:44:14.009Z,18.27
2022-12-18T00:46:41.635Z,14.65
2022-12-18T00:49:08.702Z,14.73
2022-12-18T00:51:36.152Z,16.02
2022-12-18T00:54:03.101Z,15.15
2022-12-18T00:56:30.022Z,14.50
2022-12-18T00:58:56.848Z,16.27
2022-12-18T01:01:24.134Z,15.20
2022-12-18T01:03:51.403Z,15.40
2022-12-18T01:06:18.496Z,14.68
2022-12-18T01:08:45.939Z,17.15
2022-12-18T01:11:16.483Z,14.90
2022-12-18T01:13:44.251Z,14.80
2022-12-18T01:16:15.428Z,15.50
2022-12-18T01:18:42.790Z,15.98
2022-12-18T01:21:13.341Z,15.60
2022-12-18T01:23:40.993Z,13.65
2022-12-18T01:26:14.624Z,15.00
2022-12-18T01:28:41.878Z,14.93
2022-12-18T01:31:31.704Z,14.77
2022-12-18T01:34:01.658Z,19.10
2022-12-18T01:36:37.772Z,18.52
2022-12-18T01:39:10.507Z,16.83
2022-12-18T01:41:56.226Z,16.25
2022-12-18T01:45:06.974Z,16.63
2022-12-18T01:47:52.106Z,14.25
2022-12-18T01:50:22.621Z,16.17
2022-12-18T01:52:55.305Z,17.17
2022-12-18T01:55:26.859Z,14.82
2022-12-18T01:57:57.123Z,13.55
2022-12-18T02:00:27.180Z,17.58
2022-12-18T02:02:54.769Z,18.23
2022-12-18T02:05:35.744Z,14.80
2022-12-18T02:08:36.444Z,12.77
2022-12-18T02:11:38.645Z,13.55
2022-12-18T02:14:47.099Z,13.63
2022-12-18T02:17:44.859Z,15.40
2022-12-18T02:20:35.405Z,13.85
2022-12-18T02:23:21.489Z,14.70
2022-12-18T02:26:02.557Z,14.40
2022-12-18T02:28:33.538Z,11.30
2022-12-18T02:31:04.403Z,12.60
2022-12-18T02:33:32.715Z,13.23
2022-12-18T02:36:01.360Z,14.65
2022-12-18T02:38:29.994Z,15.60
2022-12-18T02:40:57.829Z,16.88
2022-12-18T02:43:24.951Z,16.65
2022-12-18T02:45:59.575Z,15.32
2022-12-18T02:48:34.807Z,15.23
2022-12-18T02:51:23.134Z,13.65
2022-12-18T02:54:01.999Z,14.70
2022-12-18T02:56:40.282Z,14.90
2022-12-18T02:59:15.930Z,14.45
2022-12-18T03:01:48.835Z,16.95
2022-12-18T03:04:28.129Z,18.23
2022-12-18T03:06:59.824Z,15.90
2022-12-18T03:09:36.389Z,14.27
2022-12-18T03:12:31.864Z,14.07
2022-12-18T03:15:20.842Z,14.98
2022-12-18T03:18:07.146Z,15.18
2022-12-18T03:20:37.250Z,20.27
2022-12-18T03:23:13.920Z,19.55
2022-12-18T03:25:43.837Z,16.88
2022-12-18T03:28:19.437Z,19.25
2022-12-18T03:30:51.460Z,15.38
2022-12-18T03:33:27.046Z,17.95
2022-12-18T03:35:54.109Z,17.45
2022-12-18T03:38:21.043Z,18.55
2022-12-18T03:41:01.126Z,18.50
2022-12-18T03:43:52.094Z,18.60
2022-12-18T03:46:29.852Z,16.20
2022-12-18T03:49:33.019Z,17.45
2022-12-18T03:52:06.788Z,16.77
2022-12-18T03:54:36.710Z,15.90
2022-12-18T03:57:18.035Z,16.75
2022-12-18T03:59:47.048Z,15.38
2022-12-18T04:02:14.950Z,13.88
2022-12-18T04:04:43.046Z,13.90
2022-12-18T04:07:10.812Z,12.35
2022-12-18T04:09:39.412Z,14.70
2022-12-18T04:12:07.376Z,13.35
2022-12-18T04:14:36.626Z,13.75
2022-12-18T04:17:04.524Z,11.65
2022-12-18T04:19:31.807Z,13.95
2022-12-18T04:21:59.215Z,12.10
2022-12-18T04:24:26.473Z,18.70
2022-12-18T04:26:53.829Z,15.43
2022-12-18T04:29:21.166Z,15.77
2022-12-18T04:31:48.356Z,15.30
2022-12-18T04:34:15.886Z,16.00
2022-12-18T04:36:43.042Z,18.27
2022-12-18T04:39:10.364Z,17.55
2022-12-18T04:41:37.764Z,17.27
2022-12-18T04:44:05.380Z,17.25
2022-12-18T04:46:32.767Z,15.68
2022-12-18T04:49:00.033Z,18.73
2022-12-18T04:51:27.412Z,18.63
2022-12-18T04:53:55.106Z,16.48
2022-12-18T04:56:22.726Z,19.30
2022-12-18T04:58:50.325Z,17.42
2022-12-18T05:01:18.759Z,18.08
2022-12-18T05:03:46.364Z,17.42
2022-12-18T05:06:13.795Z,16.45
2022-12-18T05:08:41.372Z,18.27
2022-12-18T05:11:10.898Z,17.58
2022-12-18T05:13:39.448Z,18.58
2022-12-18T05:16:07.509Z,16.65
2022-12-18T05:18:35.151Z,15.68
2022-12-18T05:21:02.529Z,19.55
2022-12-18T05:23:30.014Z,15.95
2022-12-18T05:26:01.762Z,17.70
2022-12-18T05:28:31.011Z,15.52
2022-12-18T05:31:00.509Z,15.85
2022-12-18T05:33:30.477Z,16.80
2022-12-18T05:36:00.408Z,16.77
2022-12-18T05:38:28.155Z,17.70
2022-12-18T05:40:55.917Z,19.40
2022-12-18T05:43:24.286Z,17.33
2022-12-18T05:45:52.373Z,19.38
2022-12-18T05:48:19.786Z,15.65
2022-12-18T05:50:47.963Z,17.08
2022-12-18T05:53:17.614Z,15.10
2022-12-18T05:55:45.366Z,18.25
2022-12-18T05:58:14.041Z,15.77
2022-12-18T06:00:44.649Z,17.73
2022-12-18T06:03:12.902Z,17.45
2022-12-18T06:05:42.750Z,19.25
2022-12-18T06:08:10.736Z,16.40
2022-12-18T06:10:38.615Z,17.10
2022-12-18T06:13:06.743Z,15.90
2022-12-18T06:15:36.952Z,16.33
2022-12-18T06:18:04.306Z,17.63
2022-12-18T06:20:37.552Z,18.23
2022-12-18T06:23:04.981Z,18.30
2022-12-18T06:25:32.250Z,17.45
2022-12-18T06:27:59.716Z,16.83
2022-12-18T06:30:27.236Z,16.05
2022-12-18T06:32:56.649Z,17.30
2022-12-18T06:35:24.486Z,16.83
2022-12-18T06:37:51.953Z,15.23
2022-12-18T06:40:19.656Z,16.40
2022-12-18T06:42:47.205Z,14.27
2022-12-18T06:45:17.407Z,15.30
2022-12-18T06:47:44.831Z,13.93
2022-12-18T06:50:12.392Z,15.63
2022-12-18T06:52:41.107Z,14.65
2022-12-18T06:55:11.791Z,16.42
2022-12-18T06:57:39.394Z,16.17
2022-12-18T07:00:08.012Z,14.77
2022-12-18T07:02:35.364Z,14.93
2022-12-18T07:05:08.901Z,15.48
2022-12-18T07:07:38.064Z,15.35
2022-12-18T07:10:05.808Z,15.88
2022-12-18T07:12:33.160Z,14.15
2022-12-18T07:15:00.407Z,16.52
2022-12-18T07:17:27.808Z,13.90
2022-12-18T07:19:55.086Z,15.27
2022-12-18T07:22:22.683Z,14.45
2022-12-18T07:24:50.045Z,14.63
2022-12-18T07:27:17.481Z,14.05
2022-12-18T07:29:44.664Z,13.95
2022-12-18T07:32:12.173Z,15.30
2022-12-18T07:34:39.859Z,15.95
2022-12-18T07:37:07.081Z,14.15
2022-12-18T07:39:34.412Z,16.25
2022-12-18T07:42:20.578Z,13.85
2022-12-18T07:44:48.704Z,14.13
2022-12-18T07:47:15.966Z,13.43
2022-12-18T07:49:43.273Z,11.23
2022-12-18T07:52:10.570Z,13.45
2022-12-18T07:54:37.735Z,16.35
2022-12-18T07:57:09.924Z,13.57
2022-12-18T08:02:16.094Z,15.60
2022-12-18T08:04:43.564Z,13.27
2022-12-18T08:07:11.413Z,14.85
2022-12-18T08:09:38.624Z,13.10
2022-12-18T08:12:06.290Z,13.73
2022-12-18T08:14:33.455Z,12.93
2022-12-18T08:17:00.841Z,14.70
2022-12-18T08:19:28.564Z,13.80
2022-12-18T08:21:55.747Z,10.68
2022-12-18T08:24:23.087Z,11.60
2022-12-18T08:27:06.679Z,14.75
2022-12-18T08:29:37.659Z,12.38
2022-12-18T08:32:05.036Z,15.48
2022-12-18T08:34:32.291Z,13.50
2022-12-18T08:36:59.647Z,19.35
2022-12-18T08:39:26.814Z,28.20
2022-12-18T08:42:12.864Z,34.33
2022-12-18T08:44:40.273Z,20.77
2022-12-18T08:47:08.048Z,18.50
2022-12-18T08:49:35.786Z,34.55
2022-12-18T08:52:03.975Z,21.90
2022-12-18T08:54:31.504Z,20.80
2022-12-18T08:56:58.843Z,19.35
2022-12-18T08:59:27.063Z,15.98
2022-12-18T09:01:56.188Z,18.20
2022-12-18T09:04:24.017Z,16.77
2022-12-18T09:06:51.469Z,18.58
2022-12-18T09:09:19.073Z,19.75
2022-12-18T09:11:46.408Z,20.08
2022-12-18T09:14:13.651Z,18.48
2022-12-18T09:16:41.096Z,16.73
2022-12-18T09:19:08.413Z,15.90
2022-12-18T09:21:37.185Z,20.73
2022-12-18T09:24:07.308Z,19.17
2022-12-18T09:26:36.390Z,18.55
2022-12-18T09:29:04.637Z,19.33
2022-12-18T09:31:32.004Z,21.63
2022-12-18T09:33:59.184Z,18.02
2022-12-18T09:36:26.435Z,18.48
2022-12-18T09:38:54.351Z,18.10
2022-12-18T09:41:30.438Z,17.52
2022-12-18T09:44:26.518Z,19.63
2022-12-18T09:47:01.720Z,22.35
2022-12-18T09:49:31.889Z,19.23
2022-12-18T09:52:03.597Z,18.15
2022-12-18T09:54:39.605Z,24.80
2022-12-18T09:57:06.960Z,20.85
2022-12-18T09:59:40.636Z,20.98
2022-12-18T10:04:42.521Z,19.90
2022-12-18T10:07:31.399Z,21.85
2022-12-18T10:10:20.947Z,19.25
2022-12-18T10:13:04.838Z,19.00
2022-12-18T10:15:35.422Z,20.85
2022-12-18T10:18:22.135Z,24.63
2022-12-18T10:21:05.234Z,23.40
2022-12-18T10:23:52.561Z,24.50
2022-12-18T10:26:19.790Z,18.80
2022-12-18T10:28:49.156Z,18.13
2022-12-18T10:31:20.514Z,27.50
2022-12-18T10:33:48.117Z,37.33
2022-12-18T10:36:15.627Z,34.72
2022-12-18T10:38:43.482Z,25.77
2022-12-18T10:41:21.964Z,35.53
2022-12-18T10:43:49.428Z,34.55
2022-12-18T10:46:19.054Z,32.60
2022-12-18T10:48:49.451Z,32.80
2022-12-18T10:51:23.749Z,31.73
2022-12-18T10:54:17.316Z,30.73
2022-12-18T10:56:44.865Z,23.40
2022-12-18T10:59:16.209Z,26.98
2022-12-18T11:01:51.581Z,27.65
2022-12-18T11:04:50.966Z,26.45
2022-12-18T11:07:18.291Z,23.52
2022-12-18T11:09:46.521Z,26.13
2022-12-18T11:12:18.540Z,24.85
2022-12-18T11:14:57.055Z,22.52
2022-12-18T11:17:34.472Z,29.42
2022-12-18T11:20:04.705Z,46.25
2022-12-18T11:22:34.624Z,26.92
2022-12-18T11:25:30.712Z,26.27
2022-12-18T11:28:00.917Z,34.25
2022-12-18T11:30:33.688Z,29.05
2022-12-18T11:33:17.296Z,26.30
2022-12-18T11:35:56.994Z,26.42
2022-12-18T11:38:36.974Z,25.23
2022-12-18T11:41:10.938Z,24.70
2022-12-18T11:43:51.352Z,24.67
2022-12-18T11:46:41.070Z,22.83
2022-12-18T11:49:13.613Z,23.92
2022-12-18T11:51:48.903Z,21.65
2022-12-18T11:54:16.951Z,24.90
2022-12-18T11:57:00.426Z,25.80
2022-12-18T11:59:43.443Z,25.05
2022-12-18T12:02:22.431Z,25.42
2022-12-18T12:04:58.595Z,24.00
2022-12-18T12:08:15.114Z,22.38
2022-12-18T12:11:17.446Z,23.02
2022-12-18T12:14:07.147Z,25.00
2022-12-18T12:16:58.602Z,26.13
2022-12-18T12:19:37.610Z,24.88
2022-12-18T12:22:16.816Z,25.50
2022-12-18T12:25:08.930Z,27.95
2022-12-18T12:27:41.853Z,27.13
2022-12-18T12:30:22.194Z,26.33
2022-12-18T12:33:08.024Z,26.58
2022-12-18T12:36:15.707Z,29.35
2022-12-18T12:38:51.632Z,28.95
2022-12-18T12:41:41.508Z,29.27
2022-12-18T12:44:14.563Z,30.48
2022-12-18T12:46:43.511Z,31.05
2022-12-18T12:49:22.034Z,29.48
2022-12-18T12:52:28.316Z,29.02
2022-12-18T12:54:57.154Z,32.00
2022-12-18T12:57:38.449Z,29.30
2022-12-18T13:00:18.631Z,27.45
2022-12-18T13:03:08.003Z,28.27
2022-12-18T13:05:39.131Z,30.25
2022-12-18T13:08:12.066Z,29.73
2022-12-18T13:10:43.537Z,30.48
2022-12-18T13:13:17.919Z,30.92
2022-12-18T13:15:49.471Z,27.73
2022-12-18T13:18:21.903Z,28.77
2022-12-18T13:21:01.171Z,30.05
2022-12-18T13:23:35.725Z,26.13
2022-12-18T13:26:09.294Z,27.23
2022-12-18T13:28:48.916Z,30.33
2022-12-18T13:31:35.513Z,26.63
2022-12-18T13:34:26.133Z,24.88
2022-12-18T13:36:56.925Z,26.63
2022-12-18T13:39:34.789Z,24.92
2022-12-18T13:42:08.765Z,30.58
2022-12-18T13:44:41.621Z,31.10
2022-12-18T13:47:34.772Z,30.70
2022-12-18T13:50:03.840Z,29.83
2022-12-18T13:52:37.417Z,27.00
2022-12-18T13:55:12.439Z,27.70
2022-12-18T13:57:41.677Z,28.75
2022-12-18T14:00:18.247Z,31.30
2022-12-18T14:02:46.880Z,28.10
2022-12-18T14:05:27.397Z,30.05
2022-12-18T14:07:55.252Z,25.58
2022-12-18T14:10:45.492Z,30.52
2022-12-18T14:13:15.053Z,27.25
2022-12-18T14:15:44.861Z,51.30
2022-12-18T14:18:22.996Z,40.15
2022-12-18T14:20:53.196Z,29.10
2022-12-18T14:23:46.866Z,27.45
2022-12-18T14:26:31.800Z,29.95
2022-12-18T14:29:19.250Z,28.45
2022-12-18T14:31:46.964Z,31.17
2022-12-18T14:34:18.220Z,31.42
2022-12-18T14:36:54.085Z,29.52
2022-12-18T14:39:21.470Z,27.38
2022-12-18T14:41:50.939Z,28.35
2022-12-18T14:44:18.600Z,29.15
2022-12-18T14:46:47.282Z,30.67
2022-12-18T14:49:23.647Z,31.33
2022-12-18T14:51:53.772Z,27.35
2022-12-18T14:54:21.840Z,27.55
2022-12-18T14:57:03.036Z,29.42
2022-12-18T14:59:31.099Z,31.55
2022-12-18T15:02:09.359Z,29.58
2022-12-18T15:04:42.055Z,31.13
2022-12-18T15:07:17.338Z,32.33
2022-12-18T15:10:01.621Z,31.80
2022-12-18T15:12:56.355Z,30.80
2022-12-18T15:15:38.818Z,35.88
2022-12-18T15:18:07.799Z,41.08
2022-12-18T15:20:58.175Z,33.90
2022-12-18T15:23:52.741Z,35.90
2022-12-18T15:26:21.931Z,32.30
2022-12-18T15:28:56.301Z,33.50
2022-12-18T15:31:37.173Z,28.80
2022-12-18T15:34:20.234Z,30.70
2022-12-18T15:36:47.668Z,30.23
2022-12-18T15:39:15.025Z,38.50
2022-12-18T15:42:02.285Z,33.80
2022-12-18T15:44:29.571Z,32.42
2022-12-18T15:46:58.586Z,35.50
2022-12-18T15:49:26.045Z,36.08
2022-12-18T15:51:59.339Z,35.83
2022-12-18T15:54:45.072Z,37.75
2022-12-18T15:57:25.314Z,34.65
2022-12-18T15:59:59.009Z,30.98
2022-12-18T16:02:27.341Z,31.20
2022-12-18T16:04:55.156Z,35.88
2022-12-18T16:07:24.711Z,33.78
2022-12-18T16:09:53.100Z,39.88
2022-12-18T16:12:24.539Z,38.28
2022-12-18T16:14:51.796Z,36.78
2022-12-18T16:17:19.413Z,35.95
2022-12-18T16:19:46.760Z,32.50
2022-12-18T16:22:32.522Z,34.50
2022-12-18T16:25:00.055Z,32.70
2022-12-18T16:27:27.694Z,32.47
2022-12-18T16:29:55.149Z,32.63
2022-12-18T16:32:23.615Z,33.00
2022-12-18T16:34:51.996Z,30.83
2022-12-18T16:37:20.136Z,29.70
2022-12-18T16:39:47.371Z,27.13
2022-12-18T16:42:20.274Z,30.02
2022-12-18T16:44:49.261Z,24.52
2022-12-18T16:47:17.386Z,28.67
2022-12-18T16:49:51.771Z,31.83
2022-12-18T16:52:19.777Z,31.08
2022-12-18T16:54:47.020Z,33.28
2022-12-18T16:57:17.624Z,34.13
2022-12-18T16:59:45.264Z,31.17
2022-12-18T17:02:15.882Z,32.58
2022-12-18T17:04:44.704Z,32.10
2022-12-18T17:07:12.378Z,33.80
2022-12-18T17:09:39.902Z,29.98
2022-12-18T17:12:07.492Z,33.95
2022-12-18T17:14:35.952Z,26.33
2022-12-18T17:19:51.714Z,33.17
2022-12-18T17:22:19.676Z,31.00
2022-12-18T17:24:47.760Z,34.72
2022-12-18T17:27:15.384Z,35.60
2022-12-18T17:29:47.432Z,25.77
2022-12-18T17:32:16.599Z,29.25
2022-12-18T17:34:44.007Z,32.97
2022-12-18T17:37:11.306Z,28.05
2022-12-18T17:39:38.837Z,32.22
2022-12-18T17:42:06.801Z,26.08
2022-12-18T17:44:35.212Z,33.25
2022-12-18T17:47:03.139Z,31.05
2022-12-18T17:49:31.010Z,34.75
2022-12-18T17:51:58.251Z,31.67
2022-12-18T17:54:25.570Z,32.72
2022-12-18T17:56:52.823Z,31.85
2022-12-18T17:59:20.106Z,32.85
2022-12-18T18:01:47.646Z,30.08
2022-12-18T18:04:15.325Z,33.03
2022-12-18T18:06:42.739Z,28.48
2022-12-18T18:09:16.627Z,30.80
2022-12-18T18:12:03.760Z,32.53
2022-12-18T18:14:31.386Z,35.05
2022-12-18T18:17:03.910Z,32.33
2022-12-18T18:19:32.702Z,31.30
2022-12-18T18:22:00.086Z,29.55
2022-12-18T18:24:27.773Z,28.85
2022-12-18T18:26:56.632Z,30.67
2022-12-18T18:29:26.856Z,30.38
2022-12-18T18:31:54.441Z,31.50
2022-12-18T18:34:24.068Z,34.60
2022-12-18T18:36:51.724Z,33.38
2022-12-18T18:39:19.448Z,32.03
2022-12-18T18:41:48.440Z,32.38
2022-12-18T18:44:17.011Z,29.70
2022-12-18T18:46:44.943Z,31.08
2022-12-18T18:49:13.712Z,25.50
2022-12-18T18:51:42.000Z,29.80
2022-12-18T18:54:09.671Z,25.98
2022-12-18T18:57:04.110Z,30.73
2022-12-18T18:59:31.759Z,31.45
2022-12-18T19:02:00.600Z,32.38
2022-12-18T19:04:32.760Z,25.48
2022-12-18T19:07:00.273Z,50.97
2022-12-18T19:09:28.187Z,59.25
2022-12-18T19:12:14.531Z,62.53
2022-12-18T19:14:42.108Z,50.53
2022-12-18T19:17:09.534Z,52.17
2022-12-18T19:19:36.862Z,55.65
2022-12-18T19:22:07.047Z,36.40
2022-12-18T19:24:34.310Z,32.42
2022-12-18T19:27:01.581Z,35.85
2022-12-18T19:29:28.804Z,34.83
2022-12-18T19:31:56.318Z,30.38
2022-12-18T19:34:23.565Z,31.35
2022-12-18T19:36:53.930Z,29.65
2022-12-18T19:39:25.561Z,30.55
2022-12-18T19:41:52.988Z,33.83
2022-12-18T19:44:21.498Z,28.83
2022-12-18T19:46:51.761Z,31.50
2022-12-18T19:49:21.849Z,27.52
2022-12-18T19:51:50.459Z,26.00
2022-12-18T19:54:18.365Z,26.50
2022-12-18T19:56:46.399Z,26.02
2022-12-18T19:59:14.511Z,25.52
2022-12-18T20:01:42.431Z,29.52
2022-12-18T20:04:09.777Z,29.55
2022-12-18T20:06:50.472Z,25.33
2022-12-18T20:09:18.489Z,24.70
2022-12-18T20:11:46.631Z,28.58
2022-12-18T20:14:16.900Z,28.48
2022-12-18T20:16:50.496Z,27.27
2022-12-18T20:19:18.262Z,29.92
2022-12-18T20:21:46.250Z,33.20
2022-12-18T20:24:13.759Z,28.85
2022-12-18T20:26:41.216Z,32.70
2022-12-18T20:29:08.567Z,35.42
2022-12-18T20:31:35.959Z,33.13
2022-12-18T20:34:04.871Z,30.60
2022-12-18T20:36:34.320Z,34.53
2022-12-18T20:39:06.391Z,36.03
2022-12-18T20:41:37.957Z,32.63
2022-12-18T20:44:10.951Z,32.70
2022-12-18T20:46:56.305Z,33.05
2022-12-18T20:49:24.823Z,30.52
2022-12-18T20:51:53.796Z,26.70
2022-12-18T20:54:22.938Z,28.42
2022-12-18T20:56:50.517Z,27.35
2022-12-18T20:59:17.981Z,30.95
2022-12-18T21:01:48.515Z,31.67
2022-12-18T21:04:18.002Z,31.77
2022-12-18T21:06:51.270Z,33.10
2022-12-18T21:09:20.530Z,27.30
2022-12-18T21:12:06.599Z,29.23
2022-12-18T21:14:34.413Z,31.58
2022-12-18T21:17:02.153Z,31.13
2022-12-18T21:19:29.913Z,29.58
2022-12-18T21:21:57.975Z,32.22
2022-12-18T21:24:25.658Z,32.45
2022-12-18T21:26:54.206Z,28.58
2022-12-18T21:29:23.675Z,34.00
2022-12-18T21:31:52.256Z,35.47
2022-12-18T21:34:27.975Z,33.30
2022-12-18T21:36:57.330Z,32.85
2022-12-18T21:39:25.598Z,31.23
2022-12-18T21:42:11.519Z,31.52
2022-12-18T21:44:42.263Z,28.48
2022-12-18T21:47:22.627Z,28.58
2022-12-18T21:49:52.556Z,31.60
2022-12-18T21:52:29.507Z,31.10
2022-12-18T21:55:07.927Z,27.65
2022-12-18T21:57:36.444Z,29.20
2022-12-18T22:00:05.456Z,27.00
2022-12-18T22:02:32.910Z,28.05
2022-12-18T22:05:00.249Z,28.77
2022-12-18T22:07:29.168Z,30.65
2022-12-18T22:09:56.418Z,32.65
2022-12-18T22:12:44.535Z,30.55
2022-12-18T22:15:18.634Z,36.55
2022-12-18T22:17:49.170Z,37.47
2022-12-18T22:20:16.567Z,32.78
2022-12-18T22:22:44.060Z,37.25
2022-12-18T22:25:11.546Z,35.08
2022-12-18T22:27:38.967Z,34.58
2022-12-18T22:30:06.801Z,34.25
2022-12-18T22:32:35.591Z,33.35
2022-12-18T22:35:09.184Z,34.03
2022-12-18T22:37:37.898Z,36.75
2022-12-18T22:40:07.461Z,35.38
2022-12-18T22:42:35.752Z,36.97
2022-12-18T22:45:03.089Z,35.70
2022-12-18T22:47:30.816Z,33.08
2022-12-18T22:49:58.576Z,35.28
2022-12-18T22:52:25.935Z,32.38
2022-12-18T22:54:54.443Z,34.30
2022-12-18T22:57:22.916Z,30.52
2022-12-18T22:59:53.341Z,32.72
2022-12-18T23:02:20.816Z,32.22
2022-12-18T23:04:48.488Z,34.08
2022-12-18T23:07:16.614Z,33.60
2022-12-18T23:09:44.125Z,32.50
2022-12-18T23:12:18.693Z,38.85
2022-12-18T23:17:14.571Z,35.95
2022-12-18T23:19:48.529Z,34.05
2022-12-18T23:22:16.701Z,37.75
2022-12-18T23:24:44.143Z,35.20
2022-12-18T23:27:12.237Z,40.17
2022-12-18T23:29:40.488Z,36.67
2022-12-18T23:32:07.905Z,34.13
2022-12-18T23:34:35.235Z,36.45
2022-12-18T23:37:03.650Z,32.42
2022-12-18T23:39:31.059Z,37.83
2022-12-18T23:41:59.225Z,33.25
2022-12-18T23:44:26.975Z,30.52
2022-12-18T23:46:54.521Z,30.75
2022-12-18T23:49:21.801Z,35.20
2022-12-18T23:51:49.159Z,36.13
2022-12-18T23:54:16.607Z,40.17
2022-12-18T23:56:43.865Z,41.30
2022-12-18T23:59:11.150Z,39.47
